Relevés horaires Les Diablerets (Suisse)


Relevés horaires à Les Diablerets - Jeudi 13 Janv. 2022
Heure UTC1 Température [°C] Vent [km/h] Hum. [%] Pres.4 [hPa] Visi. [Km] Nébu. [octa] Préc.5 [mm] Cond.
2m. Res. Ros. Dir.2 Vit. Moy. Raf.3
23:00 0.6 -6.2 -18.5 E 35.2 -- 40.7 22 700(0.2/3h) -- -- -- --
22:00 0.4 -6.1 -19.5 ESE 31.5 -- 37.0 21 700(0.7/3h) -- -- -- --
21:00 0.3 -5.8 -18.7 ESE 27.8 -- 59.3 22 700(0.7/3h) -- -- -- --
20:00 -0.4 -7.5 -17.3 ESE 35.2 -- 53.7 26 700(1.0/3h) -- -- -- --
19:00 -0.9 -8.5 -16.9 ENE 38.9 -- 59.3 28 700(0.5/3h) -- -- -- --
18:00 -0.8 -7.9 -17.1 E 33.3 -- 57.4 28 700(0.7/3h) -- -- -- --
17:00 -1.1 -8.9 -16.6 E 40.7 -- 50.0 30 700(0.5/3h) -- -- -- --
16:00 -0.2 -6.1 -16.6 ENE 24.1 -- 44.4 28 700(0.8/3h) -- -- -- --
15:00 0.1 -5.9 -15.9 ENE 25.9 -- 57.4 29 700(0.5/3h) -- -- -- --
14:00 0.3 -6 -15.2 ENE 29.6 -- 55.6 30 700(0.4/3h) -- -- -- --
13:00 -0.2 -7.1 -14.0 ENE 33.3 -- 57.4 34 700(0.4/3h) -- -- -- --
12:00 -0.9 -8.3 -15.6 E 37.0 -- 66.7 32 700(0.4/3h) -- -- -- --
11:00 -1.1 -8.6 -17.5 ENE 37.0 -- 66.7 27 700(0.2/3h) -- -- -- --
10:00 -1.3 -9 -22.0 ENE 38.9 -- 64.8 19 700(0.4/3h) -- -- -- --
09:00 -2.0 -10.1 -28.0 E 40.7 -- 48.2 11 700(0.6/3h) -- -- -- --
08:00 -1.8 -7.8 -27.4 ESE 22.2 -- 35.2 12 700(0.8/3h) -- -- -- --
07:00 -2.8 -8.5 -26.0 N 18.5 -- 46.3 15 700(0.3/3h) -- -- -- --
06:00 -2.6 -9.6 -28.5 NE 27.8 -- 44.4 11 700(0.3/3h) -- -- -- --
05:00 -3.2 -9.6 -29.1 ENE 22.2 -- 35.2 11 700(0.1/3h) -- -- -- --
04:00 -3.0 -8.5 -28.2 NE 16.7 -- 33.3 12 700(0.5/3h) -- -- -- --
03:00 -3.0 -9.1 -28.0 NE 20.4 -- 38.9 12 700(0.3/3h) -- -- -- --
02:00 -3.0 -9.6 -27.3 ENE 24.1 -- 33.3 13 700(0.6/3h) -- -- -- --
01:00 -3.0 -8.8 -26.1 NE 18.5 -- 38.9 15 700(0.4/3h) -- -- -- --
00:00 -3.1 -8.9 -24.9 NNE 18.5 -- 70.4 17 700(0.6/3h) -- -- -- --

1 Coordinated Universal Time. Actuellement il est 21:00 locale et 19:00 UTC.

2 Le vent souffle depuis la direction indiquée vers la direction oposée.

3 Les rafales max. sont disponible 40 min après l'heure du relevé.

4 Pour les stations d'altitude (plus de 600m) le géopotentiel du niveau le plus proche de la pression obligatoire est indiqué.

5 Les stations disposant d'un diffuseur peuvent indiquer "trace". Cela signifie que des précipitations ont touchés le sol mais que la quantité est inférieure à 0.1 mm.

Copyright

Les données affichées sur cette page sont la propriété exclusive de Météo Suisse.

Récapitulatif de la journée
Température [°C] Vent [km/h] Ensoleillement4 [h] Precipitations totale5 [mm] Pression [Hpa]
Min1 Max.2 Moy.3 Max. Min Max.
-6.7 0.4 0 70.4 7 h 24 min 0 700.0 700.0

1 Température minimale relevée entre 18:00 UTC la veille et 18:00 UTC le jour donné.

2 Température maximale relevée entre 06:00 UTC le jour donné et 06:00 UTC le lendemain.

3 Vent moyen de la journée basé sur les relevés horaires.

4 Ensoleillement en heures relevé entre 06:00 UTC la veille et 06:00 UTC le jour donné.

5 Précipitations totales tombées entre 06:00 UTC la jour donné et 06:00 UTC le lendemain.

Graphiques horaires